Time;durP1;ratioP1;P1;durP2;ratioP2;P2;SDS_P1;SDS_P2;PMS_P1;PMS_P2;Temp;Humidity;BMP_temperature;BMP_pressure;BME280_temperature;BME280_humidity;BME280_pressure;Samples;Min_cycle;Max_cycle;Signal;HPM_P1;HPM_P2
2021/12/21 00:00:15;;;;;;;20.57;13.47;;;-2.30;99.90;;;;;;5063329;28;20202;-83
2021/12/21 00:02:43;;;;;;;17.57;13.40;;;-2.40;99.90;;;;;;5062994;28;20332;-82
2021/12/21 00:05:15;;;;;;;21.07;14.77;;;-2.40;99.90;;;;;;5062220;28;20185;-82
2021/12/21 00:07:42;;;;;;;15.73;13.97;;;-2.40;99.90;;;;;;5062624;28;20205;-82
2021/12/21 00:10:08;;;;;;;17.90;13.77;;;-2.40;99.90;;;;;;5062630;28;20257;-82
2021/12/21 00:12:36;;;;;;;21.23;14.10;;;-2.50;99.90;;;;;;5062455;28;20205;-82
2021/12/21 00:15:06;;;;;;;18.17;13.73;;;-2.50;99.90;;;;;;5064499;28;20237;-82
2021/12/21 00:17:48;;;;;;;18.17;13.50;;;-2.50;99.90;;;;;;5062767;28;20224;-82
2021/12/21 00:25:23;;;;;;;19.23;13.17;;;-2.60;99.90;;;;;;5063703;28;20186;-82
2021/12/21 00:27:51;;;;;;;15.77;13.10;;;-2.60;99.90;;;;;;5064154;28;20170;-82
2021/12/21 00:30:18;;;;;;;27.20;15.13;;;-2.70;99.90;;;;;;5064086;28;20181;-82
2021/12/21 00:32:46;;;;;;;21.57;14.23;;;-2.70;99.90;;;;;;5065818;28;20347;-82
2021/12/21 00:35:12;;;;;;;19.57;14.07;;;-2.80;99.90;;;;;;5071493;28;20171;-81
2021/12/21 00:37:40;;;;;;;16.83;13.03;;;-2.80;99.90;;;;;;5061020;28;20281;-81
2021/12/21 00:40:08;;;;;;;21.33;14.30;;;-2.90;99.90;;;;;;5059276;28;20265;-84
2021/12/21 00:42:34;;;;;;;24.17;14.77;;;-2.90;99.90;;;;;;5078410;28;20270;-84
2021/12/21 00:45:00;;;;;;;15.33;13.10;;;-2.80;99.90;;;;;;5062712;28;20210;-84
2021/12/21 00:47:26;;;;;;;17.80;14.10;;;-2.80;99.90;;;;;;5063939;28;20182;-84
2021/12/21 00:49:59;;;;;;;16.27;13.47;;;-2.80;99.90;;;;;;5063937;28;20675;-83
2021/12/21 00:52:26;;;;;;;24.03;14.27;;;-2.60;99.90;;;;;;5064231;28;20210;-83
2021/12/21 00:54:52;;;;;;;26.13;14.90;;;-2.70;99.90;;;;;;5064203;28;20186;-84
2021/12/21 00:57:18;;;;;;;21.00;13.83;;;-2.80;99.90;;;;;;5058408;28;20300;-84
2021/12/21 00:59:44;;;;;;;16.93;13.63;;;-2.80;99.90;;;;;;5058744;28;20685;-83
2021/12/21 01:02:10;;;;;;;17.90;14.80;;;-2.80;99.90;;;;;;5060427;28;20225;-83
2021/12/21 01:04:41;;;;;;;20.23;14.53;;;-2.80;99.90;;;;;;5078671;28;20182;-82
2021/12/21 01:12:51;;;;;;;19.93;14.07;;;-2.60;99.90;;;;;;5070044;28;20697;-81
2021/12/21 01:18:17;;;;;;;20.70;15.50;;;-2.50;99.90;;;;;;5067282;28;20216;-82
2021/12/21 01:20:50;;;;;;;18.27;13.47;;;-2.50;99.90;;;;;;5063886;28;20270;-82
2021/12/21 01:28:26;;;;;;;19.33;14.03;;;-2.80;99.90;;;;;;5065332;28;20655;-82
2021/12/21 01:36:25;;;;;;;22.00;14.73;;;-2.90;99.90;;;;;;5066697;28;20159;-82
2021/12/21 01:41:48;;;;;;;18.23;14.83;;;-3.00;99.90;;;;;;5064810;28;20259;-83
2021/12/21 01:49:34;;;;;;;21.87;13.37;;;-3.10;99.90;;;;;;5062715;28;20167;-83
2021/12/21 01:49:45;;;;;;;19.60;13.63;;;-3.20;99.90;;;;;;5064655;28;20223;-83
2021/12/21 01:52:16;;;;;;;20.27;14.00;;;-3.10;99.90;;;;;;5064501;28;20197;-81
2021/12/21 01:54:42;;;;;;;18.43;13.67;;;-3.20;99.90;;;;;;5063369;28;20512;-81
2021/12/21 01:57:09;;;;;;;20.10;14.40;;;-3.20;99.90;;;;;;5064002;28;20182;-81
2021/12/21 01:59:36;;;;;;;20.03;13.67;;;-3.20;99.90;;;;;;5063216;28;20248;-83
2021/12/21 02:02:04;;;;;;;18.43;13.67;;;-3.10;99.90;;;;;;5063100;28;20256;-83
2021/12/21 02:04:30;;;;;;;20.87;14.33;;;-3.20;99.90;;;;;;5064051;28;20202;-83
2021/12/21 02:06:56;;;;;;;19.30;14.33;;;-3.20;99.90;;;;;;5064176;28;20563;-83
2021/12/21 02:09:27;;;;;;;18.60;14.13;;;-3.20;99.90;;;;;;5063666;28;20245;-83
2021/12/21 02:11:53;;;;;;;20.57;13.93;;;-3.20;99.90;;;;;;5064164;28;20566;-83
2021/12/21 02:14:19;;;;;;;19.20;14.40;;;-3.20;99.90;;;;;;5064293;28;20174;-83
2021/12/21 02:17:00;;;;;;;19.23;14.07;;;-3.30;99.90;;;;;;5063203;28;20746;-83
2021/12/21 02:19:35;;;;;;;17.73;14.10;;;-3.30;99.90;;;;;;5063492;28;20201;-83
2021/12/21 02:22:15;;;;;;;18.63;14.57;;;-3.30;99.90;;;;;;5056715;28;20585;-83
2021/12/21 02:24:50;;;;;;;18.43;14.03;;;-3.30;99.90;;;;;;5057756;28;20281;-83
2021/12/21 02:27:28;;;;;;;19.30;13.80;;;-3.40;99.90;;;;;;5059421;28;20171;-83
2021/12/21 02:29:54;;;;;;;22.77;14.07;;;-3.40;99.90;;;;;;5059424;28;20223;-80
2021/12/21 02:32:22;;;;;;;18.43;14.43;;;-3.40;99.90;;;;;;5062483;28;20190;-81
2021/12/21 02:34:49;;;;;;;20.33;14.73;;;-3.40;99.90;;;;;;5063588;28;20186;-81
2021/12/21 02:37:15;;;;;;;22.40;15.20;;;-3.40;99.90;;;;;;5058531;28;20170;-81
2021/12/21 02:39:40;;;;;;;18.47;13.80;;;-3.40;99.90;;;;;;5056254;28;20229;-81
2021/12/21 02:42:07;;;;;;;25.50;13.27;;;-3.40;99.90;;;;;;5057369;28;20571;-81
2021/12/21 02:44:33;;;;;;;18.17;13.60;;;-3.40;99.90;;;;;;5058793;28;20181;-81
2021/12/21 02:46:59;;;;;;;17.97;12.83;;;-3.40;99.90;;;;;;5059955;28;20647;-81
2021/12/21 02:49:25;;;;;;;18.33;14.60;;;-3.40;99.90;;;;;;5061652;28;20190;-81
2021/12/21 02:51:50;;;;;;;17.33;13.80;;;-3.40;99.90;;;;;;5060320;28;20253;-81
2021/12/21 02:54:19;;;;;;;15.97;13.60;;;-3.50;99.90;;;;;;5060514;28;20179;-83
2021/12/21 02:56:46;;;;;;;16.50;13.53;;;-3.70;99.90;;;;;;5061467;28;20189;-82
2021/12/21 02:59:12;;;;;;;18.77;14.43;;;-3.70;99.90;;;;;;5060122;28;20242;-82
2021/12/21 03:01:39;;;;;;;17.00;13.37;;;-3.70;99.90;;;;;;5062428;28;20171;-82
2021/12/21 03:04:07;;;;;;;18.30;13.73;;;-3.70;99.90;;;;;;5063172;28;20174;-82
2021/12/21 03:11:56;;;;;;;16.40;13.43;;;-3.70;99.90;;;;;;5063245;28;20222;-82
2021/12/21 03:14:27;;;;;;;22.00;15.13;;;-3.70;99.90;;;;;;5062384;28;20197;-82
2021/12/21 03:16:53;;;;;;;16.13;13.07;;;-3.70;99.90;;;;;;5061497;28;20535;-82
2021/12/21 03:19:19;;;;;;;15.23;13.63;;;-3.70;99.90;;;;;;5062027;28;20214;-82
2021/12/21 03:21:45;;;;;;;22.50;14.60;;;-3.70;99.90;;;;;;5061925;28;20643;-82
2021/12/21 03:24:11;;;;;;;15.77;13.73;;;-3.70;99.90;;;;;;5062725;28;20543;-82
2021/12/21 03:26:37;;;;;;;19.57;13.63;;;-3.70;99.90;;;;;;5062643;28;20193;-82
2021/12/21 03:29:04;;;;;;;16.77;13.70;;;-3.70;99.90;;;;;;5062747;28;20194;-82
2021/12/21 03:31:31;;;;;;;17.50;14.23;;;-3.80;99.90;;;;;;5061684;28;20178;-82
2021/12/21 03:33:57;;;;;;;22.50;14.50;;;-3.80;99.90;;;;;;5063542;28;20228;-82
2021/12/21 03:36:23;;;;;;;15.50;13.53;;;-3.80;99.90;;;;;;5061929;28;20182;-81
2021/12/21 03:39:24;;;;;;;25.67;14.80;;;-3.80;99.90;;;;;;5062649;28;20545;-81
2021/12/21 03:41:47;;;;;;;17.93;14.30;;;-3.80;99.90;;;;;;5059437;28;20568;-82
2021/12/21 03:44:14;;;;;;;16.83;14.47;;;-3.80;99.90;;;;;;5062129;28;20613;-81
2021/12/21 03:46:46;;;;;;;17.67;15.17;;;-3.70;99.90;;;;;;5062263;28;20543;-82
2021/12/21 03:52:06;;;;;;;17.93;14.27;;;-3.70;99.90;;;;;;5035970;28;20202;-82
2021/12/21 03:54:32;;;;;;;19.80;14.17;;;-3.70;99.90;;;;;;5057726;28;20167;-82
2021/12/21 03:57:00;;;;;;;21.10;14.60;;;-3.70;99.90;;;;;;5059571;28;20209;-81
2021/12/21 03:59:26;;;;;;;18.17;13.27;;;-3.60;99.90;;;;;;5060784;28;20220;-82
2021/12/21 04:01:52;;;;;;;18.03;13.80;;;-3.50;99.90;;;;;;5063006;28;20206;-82
2021/12/21 04:04:18;;;;;;;19.27;13.87;;;-3.50;99.90;;;;;;5063513;28;20201;-81
2021/12/21 04:06:46;;;;;;;19.67;15.10;;;-3.60;99.90;;;;;;5063016;28;20328;-82
2021/12/21 04:09:12;;;;;;;19.03;14.27;;;-3.70;99.90;;;;;;5062648;28;20267;-83
2021/12/21 04:11:38;;;;;;;18.57;13.83;;;-3.70;99.90;;;;;;5060472;28;20174;-81
2021/12/21 04:14:05;;;;;;;16.30;14.33;;;-3.80;99.90;;;;;;5062482;28;20170;-81
2021/12/21 04:16:31;;;;;;;21.10;14.17;;;-3.80;99.90;;;;;;5061264;28;20178;-83
2021/12/21 04:18:57;;;;;;;18.87;14.17;;;-3.90;99.90;;;;;;5062587;28;20239;-82
2021/12/21 04:21:23;;;;;;;18.50;14.33;;;-3.80;99.90;;;;;;5055976;28;20244;-81
2021/12/21 04:23:49;;;;;;;15.93;14.20;;;-3.90;99.90;;;;;;5054251;28;20202;-81
2021/12/21 04:26:16;;;;;;;19.90;14.03;;;-3.90;99.90;;;;;;5055363;28;20555;-82
2021/12/21 04:28:42;;;;;;;19.70;14.60;;;-3.90;99.90;;;;;;5055271;28;20209;-82
2021/12/21 04:31:10;;;;;;;17.57;14.13;;;-3.90;99.90;;;;;;5053101;28;20221;-83
2021/12/21 04:33:37;;;;;;;19.87;14.17;;;-3.90;99.90;;;;;;5054564;28;20292;-82
2021/12/21 04:36:04;;;;;;;16.97;14.03;;;-3.90;99.90;;;;;;5053181;28;20277;-83
2021/12/21 04:38:35;;;;;;;16.50;13.80;;;-4.00;99.90;;;;;;5054357;28;20178;-82
2021/12/21 04:41:11;;;;;;;14.90;13.30;;;-3.90;99.90;;;;;;5054298;28;20201;-82
2021/12/21 04:43:38;;;;;;;15.87;13.57;;;-3.90;99.90;;;;;;5052900;28;20716;-82
2021/12/21 04:46:04;;;;;;;15.57;13.97;;;-4.00;99.90;;;;;;5054406;28;20174;-82
2021/12/21 04:48:30;;;;;;;15.23;13.47;;;-4.00;99.90;;;;;;5055141;28;20619;-81
2021/12/21 04:50:56;;;;;;;17.57;14.17;;;-4.00;99.90;;;;;;5057300;28;20209;-81
2021/12/21 04:53:22;;;;;;;22.90;13.93;;;-4.10;99.90;;;;;;5055924;28;20202;-80
2021/12/21 04:55:48;;;;;;;16.53;13.57;;;-4.10;99.90;;;;;;5053543;28;20666;-81
2021/12/21 04:58:14;;;;;;;16.50;14.20;;;-4.20;99.90;;;;;;5053335;28;20586;-81
2021/12/21 05:00:40;;;;;;;18.23;13.70;;;-4.20;99.90;;;;;;5055802;28;20273;-81
2021/12/21 05:03:07;;;;;;;17.87;13.60;;;-4.30;99.90;;;;;;5054959;28;20194;-80
2021/12/21 05:05:33;;;;;;;16.97;13.37;;;-4.40;99.90;;;;;;5053834;28;20216;-82
2021/12/21 05:08:10;;;;;;;17.80;13.57;;;-4.40;99.90;;;;;;5054807;28;20665;-79
2021/12/21 05:10:48;;;;;;;16.13;14.13;;;-4.40;99.90;;;;;;5055515;28;20186;-79
2021/12/21 05:13:15;;;;;;;14.50;13.03;;;-4.20;99.90;;;;;;5070580;28;20242;-79
2021/12/21 05:15:41;;;;;;;15.77;13.27;;;-4.00;99.90;;;;;;5054692;28;20186;-79
2021/12/21 05:18:07;;;;;;;14.40;12.93;;;-4.10;99.90;;;;;;5057430;28;20370;-82
2021/12/21 05:20:33;;;;;;;20.07;15.00;;;-4.20;99.90;;;;;;5057350;28;20535;-82
2021/12/21 05:22:59;;;;;;;18.10;14.33;;;-4.20;99.90;;;;;;5060748;28;20202;-82
2021/12/21 05:25:24;;;;;;;18.20;14.87;;;-4.20;99.90;;;;;;5061914;28;20197;-81
2021/12/21 05:27:50;;;;;;;21.37;15.13;;;-4.20;99.90;;;;;;5056849;28;20224;-81
2021/12/21 05:30:16;;;;;;;23.07;15.27;;;-4.30;99.90;;;;;;5057409;28;20174;-82
2021/12/21 05:32:42;;;;;;;20.43;15.33;;;-4.40;99.90;;;;;;5057986;28;20194;-81
2021/12/21 05:35:09;;;;;;;15.73;14.13;;;-4.40;99.90;;;;;;5057416;28;20186;-81
2021/12/21 05:37:37;;;;;;;15.83;13.37;;;-4.30;99.90;;;;;;5058675;28;20181;-86
2021/12/21 05:40:13;;;;;;;21.00;14.83;;;-4.30;99.90;;;;;;5057084;28;20210;-81
2021/12/21 05:42:39;;;;;;;20.23;13.93;;;-4.30;99.90;;;;;;5073845;28;20198;-81
2021/12/21 05:45:06;;;;;;;25.33;14.37;;;-4.30;99.90;;;;;;5057142;28;20213;-81
2021/12/21 05:47:32;;;;;;;18.50;13.63;;;-4.30;99.90;;;;;;5075440;28;20170;-79
2021/12/21 05:49:57;;;;;;;15.93;13.53;;;-4.30;99.90;;;;;;5060874;28;20216;-78
2021/12/21 05:52:23;;;;;;;17.93;13.83;;;-4.30;99.90;;;;;;5060702;28;20194;-79
2021/12/21 05:54:49;;;;;;;18.40;13.83;;;-4.30;99.90;;;;;;5060076;28;20178;-79
2021/12/21 05:57:16;;;;;;;19.27;13.73;;;-4.30;99.90;;;;;;5059544;28;20204;-79
2021/12/21 05:59:42;;;;;;;17.00;14.00;;;-4.50;99.90;;;;;;5058384;28;20202;-79
2021/12/21 06:02:08;;;;;;;16.70;12.97;;;-4.40;99.90;;;;;;5058810;28;20203;-79
2021/12/21 06:04:34;;;;;;;18.53;13.97;;;-4.40;99.90;;;;;;5058015;28;20273;-80
2021/12/21 06:07:00;;;;;;;20.63;14.27;;;-4.50;99.90;;;;;;5058459;28;20206;-80
2021/12/21 06:09:27;;;;;;;20.87;14.40;;;-4.40;99.90;;;;;;5058108;28;20639;-80
2021/12/21 06:14:52;;;;;;;15.93;13.37;;;-4.40;99.90;;;;;;5075285;28;20212;-82
2021/12/21 06:28:11;;;;;;;17.00;13.73;;;-4.40;99.90;;;;;;5062914;28;20182;-82
2021/12/21 06:30:39;;;;;;;18.60;12.67;;;-4.40;99.90;;;;;;5065532;28;20183;-81
2021/12/21 06:33:07;;;;;;;14.03;12.63;;;-4.50;99.90;;;;;;5066635;28;20198;-81
2021/12/21 06:35:34;;;;;;;20.23;13.83;;;-4.40;99.90;;;;;;5066840;28;20179;-82
2021/12/21 06:38:00;;;;;;;15.87;13.33;;;-4.40;99.90;;;;;;5067514;28;20189;-82
2021/12/21 06:40:27;;;;;;;19.97;13.50;;;-4.40;99.90;;;;;;5067583;28;20208;-80
2021/12/21 06:42:53;;;;;;;17.60;13.03;;;-4.40;99.90;;;;;;5083572;28;20198;-81
2021/12/21 06:45:42;;;;;;;16.20;13.03;;;-4.40;99.90;;;;;;5064773;28;20178;-80
2021/12/21 06:53:41;;;;;;;13.27;11.97;;;-4.50;99.90;;;;;;5058230;28;20223;-79
2021/12/21 06:56:08;;;;;;;16.27;13.33;;;-4.50;99.90;;;;;;5073013;28;20257;-79
2021/12/21 06:58:34;;;;;;;16.93;13.87;;;-4.50;99.90;;;;;;5057597;28;20277;-79
2021/12/21 07:01:01;;;;;;;14.83;12.70;;;-4.60;99.90;;;;;;5056227;28;20230;-79
2021/12/21 07:03:27;;;;;;;13.10;11.83;;;-4.60;99.90;;;;;;5074735;28;20274;-79
2021/12/21 07:05:53;;;;;;;14.20;11.93;;;-4.70;99.90;;;;;;5060995;28;20206;-79
2021/12/21 07:08:27;;;;;;;15.67;12.70;;;-4.60;99.90;;;;;;5061473;28;20635;-79
2021/12/21 07:11:03;;;;;;;15.97;13.20;;;-4.60;99.90;;;;;;5057160;28;20166;-79
2021/12/21 07:18:58;;;;;;;15.33;12.80;;;-4.70;99.90;;;;;;5055781;28;20697;-79
2021/12/21 07:21:24;;;;;;;16.07;12.37;;;-4.70;99.90;;;;;;5054424;28;20202;-79
2021/12/21 07:23:51;;;;;;;16.03;12.90;;;-4.70;99.90;;;;;;5055104;28;20229;-79
2021/12/21 07:26:17;;;;;;;16.37;12.07;;;-4.70;99.90;;;;;;5054724;28;20210;-79
2021/12/21 07:28:44;;;;;;;16.13;13.20;;;-4.70;99.90;;;;;;5056457;28;20171;-79
2021/12/21 07:31:09;;;;;;;18.63;13.77;;;-4.70;99.90;;;;;;5055939;28;20171;-81
2021/12/21 07:33:35;;;;;;;15.57;13.70;;;-4.80;99.90;;;;;;5056286;28;20201;-81
2021/12/21 07:36:02;;;;;;;14.57;12.80;;;-4.90;99.90;;;;;;5056175;28;20265;-82
2021/12/21 07:38:30;;;;;;;15.13;13.53;;;-4.80;99.90;;;;;;5054363;28;20182;-82
2021/12/21 07:40:57;;;;;;;16.03;13.40;;;-4.70;99.90;;;;;;5054988;28;20198;-79
2021/12/21 07:43:23;;;;;;;19.93;12.37;;;-4.70;99.90;;;;;;5058201;28;20531;-79
2021/12/21 07:45:49;;;;;;;15.70;13.97;;;-4.70;99.90;;;;;;5058185;28;20183;-79
2021/12/21 07:48:15;;;;;;;19.47;14.23;;;-4.70;99.90;;;;;;5054817;28;20174;-80
2021/12/21 07:50:41;;;;;;;17.23;13.67;;;-4.60;99.90;;;;;;5055141;28;20188;-80
2021/12/21 07:53:07;;;;;;;16.90;13.43;;;-4.60;99.90;;;;;;5069896;28;20202;-80
2021/12/21 07:55:33;;;;;;;16.10;12.93;;;-4.70;99.90;;;;;;5053595;28;20178;-80
2021/12/21 07:57:59;;;;;;;14.40;12.93;;;-4.60;99.90;;;;;;5054599;28;20236;-80
2021/12/21 08:00:25;;;;;;;17.07;14.70;;;-4.70;99.90;;;;;;5055092;28;20222;-80
2021/12/21 08:02:50;;;;;;;17.70;15.30;;;-4.60;99.90;;;;;;5053675;28;20205;-80
2021/12/21 08:05:17;;;;;;;17.37;14.20;;;-4.50;99.90;;;;;;5053854;28;20171;-80
2021/12/21 08:07:52;;;;;;;20.83;15.53;;;-4.60;99.90;;;;;;5070714;28;20213;-79
2021/12/21 08:10:30;;;;;;;16.37;14.13;;;-4.60;99.90;;;;;;5055394;28;20180;-81
2021/12/21 08:12:56;;;;;;;16.10;14.47;;;-4.50;99.90;;;;;;5071744;28;20702;-79
2021/12/21 08:15:25;;;;;;;17.83;14.60;;;-4.50;99.90;;;;;;5056370;28;20227;-79
2021/12/21 08:17:51;;;;;;;19.07;14.83;;;-4.50;99.90;;;;;;5057277;28;20197;-80
2021/12/21 08:20:17;;;;;;;20.17;15.63;;;-4.40;99.90;;;;;;5055216;28;20202;-80
2021/12/21 08:22:43;;;;;;;19.83;15.77;;;-4.40;99.90;;;;;;5056444;28;20195;-80
2021/12/21 08:25:09;;;;;;;21.47;15.00;;;-4.40;99.90;;;;;;5065517;28;20236;-76
2021/12/21 08:27:35;;;;;;;20.23;14.07;;;-4.40;99.90;;;;;;5055508;28;20265;-81
2021/12/21 08:30:01;;;;;;;16.73;14.97;;;-4.30;99.90;;;;;;5064222;28;20178;-79
2021/12/21 08:32:26;;;;;;;24.40;15.87;;;-4.30;99.90;;;;;;5062963;28;20222;-79
2021/12/21 08:34:52;;;;;;;19.93;15.97;;;-4.30;99.90;;;;;;5059594;28;20181;-80
2021/12/21 08:37:18;;;;;;;17.10;15.23;;;-4.30;99.90;;;;;;5055668;28;20651;-81
2021/12/21 08:39:44;;;;;;;21.17;15.27;;;-4.20;99.90;;;;;;5057481;28;20281;-80
2021/12/21 08:42:13;;;;;;;20.03;15.40;;;-4.20;99.90;;;;;;5057951;28;20281;-78
2021/12/21 08:44:40;;;;;;;22.47;16.77;;;-4.10;99.90;;;;;;5060021;28;20556;-78
2021/12/21 08:47:06;;;;;;;19.87;15.53;;;-4.10;99.90;;;;;;5059005;28;20235;-79
2021/12/21 08:49:32;;;;;;;23.80;16.37;;;-4.00;99.90;;;;;;5056605;28;20178;-79
2021/12/21 08:51:58;;;;;;;16.80;15.10;;;-3.90;99.90;;;;;;5061337;28;20286;-79
2021/12/21 08:54:24;;;;;;;19.47;14.40;;;-3.90;99.90;;;;;;5060905;28;20288;-80
2021/12/21 08:56:50;;;;;;;16.37;13.97;;;-3.80;99.90;;;;;;5058418;28;20175;-82
2021/12/21 08:59:17;;;;;;;17.17;14.07;;;-3.70;99.90;;;;;;5056983;28;20220;-82
2021/12/21 09:01:43;;;;;;;16.00;13.77;;;-3.70;99.90;;;;;;5057052;28;20183;-83
2021/12/21 09:04:10;;;;;;;16.07;14.00;;;-3.60;99.90;;;;;;5057156;28;20173;-83
2021/12/21 09:06:36;;;;;;;15.67;14.07;;;-3.60;99.90;;;;;;5056945;28;20179;-83
2021/12/21 09:09:03;;;;;;;17.03;14.00;;;-3.50;99.90;;;;;;5057078;28;20239;-83
2021/12/21 09:11:29;;;;;;;16.33;14.73;;;-3.40;99.90;;;;;;5063524;28;20674;-83
2021/12/21 09:13:54;;;;;;;16.37;13.37;;;-3.30;99.90;;;;;;5059640;28;20199;-83
2021/12/21 09:16:20;;;;;;;18.90;14.27;;;-3.30;99.90;;;;;;5057756;28;20183;-83
2021/12/21 09:18:46;;;;;;;17.07;13.80;;;-3.20;99.90;;;;;;5057386;28;20194;-83
2021/12/21 09:21:12;;;;;;;16.53;14.63;;;-3.20;99.90;;;;;;5058729;28;20263;-83
2021/12/21 09:23:40;;;;;;;17.97;15.10;;;-3.10;99.90;;;;;;5057600;28;20205;-83
2021/12/21 09:26:05;;;;;;;16.77;13.23;;;-3.10;99.90;;;;;;5058353;28;20273;-83
2021/12/21 09:28:31;;;;;;;15.50;13.10;;;-3.10;99.90;;;;;;5057384;28;20677;-83
2021/12/21 09:30:57;;;;;;;19.87;14.20;;;-3.00;99.90;;;;;;5057090;28;20645;-83
2021/12/21 09:33:23;;;;;;;23.77;14.70;;;-3.00;99.90;;;;;;5057104;28;20570;-83
2021/12/21 09:35:51;;;;;;;21.93;13.87;;;-3.00;99.90;;;;;;5056719;28;20179;-84
2021/12/21 09:38:17;;;;;;;17.57;14.73;;;-2.80;99.90;;;;;;5057811;28;20524;-83
2021/12/21 09:40:43;;;;;;;16.73;13.90;;;-2.70;99.90;;;;;;5058141;28;20208;-83
2021/12/21 09:43:10;;;;;;;21.20;14.97;;;-2.60;99.90;;;;;;5057704;28;20194;-83
2021/12/21 09:45:37;;;;;;;17.40;13.73;;;-2.40;99.90;;;;;;5056453;28;20182;-84
2021/12/21 09:48:04;;;;;;;18.67;14.83;;;-2.30;99.90;;;;;;5057435;28;20209;-84
2021/12/21 09:50:30;;;;;;;16.93;13.77;;;-2.20;99.90;;;;;;5056395;28;20625;-84
2021/12/21 09:52:56;;;;;;;17.57;14.57;;;-2.00;99.90;;;;;;5055777;28;20205;-84
2021/12/21 09:55:23;;;;;;;15.93;13.37;;;-1.90;99.90;;;;;;5056420;28;20205;-84
2021/12/21 09:57:50;;;;;;;18.17;15.23;;;-1.90;99.90;;;;;;5056555;28;20194;-84
2021/12/21 10:00:21;;;;;;;22.07;15.07;;;-1.80;99.90;;;;;;5055287;28;20213;-84
2021/12/21 10:02:47;;;;;;;20.17;14.27;;;-1.70;99.90;;;;;;5054468;28;20202;-83
2021/12/21 10:05:17;;;;;;;17.13;14.83;;;-1.60;99.90;;;;;;5056729;28;20265;-83
2021/12/21 10:07:43;;;;;;;22.43;14.57;;;-1.50;99.90;;;;;;5055596;28;20270;-83
2021/12/21 10:10:15;;;;;;;17.50;14.07;;;-1.50;99.90;;;;;;5055885;28;20295;-84
2021/12/21 10:12:44;;;;;;;15.57;13.67;;;-1.30;99.90;;;;;;5056350;28;20272;-84
2021/12/21 10:15:17;;;;;;;18.47;14.07;;;-1.30;99.90;;;;;;5055951;28;20236;-84
2021/12/21 10:17:52;;;;;;;15.97;12.87;;;-1.10;99.90;;;;;;5055397;28;20266;-84
2021/12/21 10:20:35;;;;;;;13.33;11.93;;;-1.00;99.90;;;;;;5054832;28;20343;-84
2021/12/21 10:23:17;;;;;;;23.57;13.37;;;-0.90;99.90;;;;;;5055380;28;20275;-84
2021/12/21 10:25:49;;;;;;;19.07;12.90;;;-0.70;99.90;;;;;;5072590;28;20658;-84
2021/12/21 10:28:36;;;;;;;15.53;13.83;;;-0.60;99.90;;;;;;5056041;28;20180;-84
2021/12/21 10:31:24;;;;;;;14.73;13.23;;;-0.40;99.90;;;;;;5055829;28;20214;-84
2021/12/21 10:33:50;;;;;;;16.63;13.10;;;-0.30;99.90;;;;;;5056615;28;20198;-84
2021/12/21 10:36:17;;;;;;;15.50;13.67;;;-0.20;99.90;;;;;;5056132;28;20166;-84
2021/12/21 10:38:51;;;;;;;15.33;13.40;;;0.00;99.90;;;;;;5054845;28;20181;-84
2021/12/21 10:41:41;;;;;;;21.27;14.97;;;0.30;99.90;;;;;;5056202;28;20666;-85
2021/12/21 10:44:16;;;;;;;15.50;13.90;;;0.40;99.90;;;;;;5071856;28;20619;-84
2021/12/21 10:46:52;;;;;;;19.33;14.00;;;0.60;99.90;;;;;;5054638;28;20648;-84
2021/12/21 10:49:24;;;;;;;15.83;14.23;;;0.80;99.90;;;;;;5055192;28;20305;-84
2021/12/21 10:52:07;;;;;;;16.80;13.77;;;0.80;99.90;;;;;;5055873;28;20185;-84
2021/12/21 10:54:42;;;;;;;15.40;12.93;;;1.10;99.90;;;;;;5054536;28;20163;-84
2021/12/21 10:57:11;;;;;;;22.07;16.03;;;1.40;99.90;;;;;;5054503;28;20178;-84
2021/12/21 10:59:40;;;;;;;15.93;12.97;;;1.50;99.90;;;;;;5054213;28;20674;-84
2021/12/21 11:02:10;;;;;;;14.00;12.53;;;1.60;99.90;;;;;;5055587;28;20205;-85
2021/12/21 11:04:37;;;;;;;15.03;11.87;;;1.80;99.90;;;;;;5055094;28;20272;-84
2021/12/21 11:10:17;;;;;;;14.07;12.47;;;2.10;99.90;;;;;;5055817;28;20159;-84
2021/12/21 11:12:46;;;;;;;19.73;13.00;;;2.20;99.90;;;;;;5054199;28;20209;-84
2021/12/21 11:15:14;;;;;;;12.57;10.90;;;2.40;99.90;;;;;;5054101;28;20241;-84
2021/12/21 11:17:40;;;;;;;13.07;10.73;;;2.40;99.90;;;;;;5054004;28;20185;-84
2021/12/21 11:20:08;;;;;;;12.20;11.00;;;2.50;99.90;;;;;;5054970;28;20202;-84
2021/12/21 11:22:37;;;;;;;11.13;10.13;;;2.70;99.90;;;;;;5070524;28;20205;-85
2021/12/21 11:25:05;;;;;;;15.40;10.13;;;2.90;99.90;;;;;;5055088;28;20667;-84
2021/12/21 11:27:34;;;;;;;13.30;10.50;;;3.10;99.90;;;;;;5054042;28;20526;-85
2021/12/21 11:30:03;;;;;;;15.33;10.70;;;3.10;99.90;;;;;;5055079;28;20175;-85
2021/12/21 11:32:31;;;;;;;11.87;10.37;;;3.20;99.90;;;;;;5055026;28;20198;-85
2021/12/21 11:37:20;;;;;;;13.10;10.50;;;3.30;99.90;;;;;;5054149;28;20174;-85
2021/12/21 11:37:49;;;;;;;11.27;10.07;;;3.50;99.90;;;;;;5055116;28;20545;-85
2021/12/21 11:40:19;;;;;;;10.97;9.87;;;3.60;99.90;;;;;;5053480;28;20666;-85
2021/12/21 11:42:51;;;;;;;12.40;9.70;;;3.40;99.90;;;;;;5053278;28;20252;-85
2021/12/21 11:45:58;;;;;;;13.30;9.97;;;3.50;99.90;;;;;;5054411;28;20643;-85
2021/12/21 11:48:27;;;;;;;11.47;10.00;;;3.70;99.90;;;;;;5020648;28;20292;-85
2021/12/21 11:51:01;;;;;;;12.30;9.70;;;3.80;99.90;;;;;;5053043;28;20586;-85
2021/12/21 11:53:27;;;;;;;11.30;10.10;;;4.00;99.90;;;;;;5054759;28;20613;-85
2021/12/21 11:55:53;;;;;;;11.40;10.30;;;4.20;99.90;;;;;;5053269;28;20182;-85
2021/12/21 11:58:32;;;;;;;13.03;9.93;;;4.10;99.90;;;;;;5053154;28;20187;-85
2021/12/21 12:01:26;;;;;;;12.40;10.73;;;4.20;99.90;;;;;;5069829;28;20186;-85
2021/12/21 12:04:05;;;;;;;12.30;10.37;;;4.40;99.90;;;;;;5052556;28;20228;-85
2021/12/21 12:06:52;;;;;;;10.90;9.80;;;4.50;99.90;;;;;;5053939;28;20618;-85
2021/12/21 12:09:26;;;;;;;12.43;9.67;;;4.70;99.90;;;;;;5053509;28;20177;-85
2021/12/21 12:12:11;;;;;;;15.97;9.93;;;4.60;99.90;;;;;;5054594;28;20158;-84
2021/12/21 12:14:38;;;;;;;11.27;9.23;;;4.40;99.90;;;;;;5054691;28;20580;-85
2021/12/21 12:17:17;;;;;;;13.00;9.67;;;4.50;99.90;;;;;;5054346;28;20181;-85
2021/12/21 12:19:55;;;;;;;14.37;9.57;;;4.50;99.90;;;;;;5054422;28;20285;-85
2021/12/21 12:22:36;;;;;;;10.90;9.80;;;4.60;99.90;;;;;;5053627;28;20712;-85
2021/12/21 12:25:05;;;;;;;12.43;10.70;;;4.60;99.90;;;;;;5052839;28;20212;-85
2021/12/21 12:27:31;;;;;;;10.37;9.47;;;4.60;99.90;;;;;;5056314;28;20643;-85
2021/12/21 12:30:00;;;;;;;11.67;10.40;;;4.70;99.90;;;;;;5056951;28;20185;-85
2021/12/21 12:32:46;;;;;;;13.93;9.70;;;4.70;99.90;;;;;;5055197;28;20202;-85
2021/12/21 12:35:15;;;;;;;12.10;9.67;;;4.80;99.90;;;;;;5055568;28;20167;-85
2021/12/21 12:38:02;;;;;;;15.53;9.70;;;4.90;99.90;;;;;;5054915;28;20170;-85
2021/12/21 12:40:34;;;;;;;10.37;9.27;;;4.90;99.90;;;;;;5054407;28;20198;-84
2021/12/21 12:43:08;;;;;;;9.97;9.03;;;4.90;99.90;;;;;;5053611;28;20195;-85
2021/12/21 12:45:36;;;;;;;10.60;8.60;;;5.00;99.90;;;;;;5053815;28;20175;-85
2021/12/21 12:48:04;;;;;;;12.60;8.97;;;5.00;99.90;;;;;;5053782;28;20231;-85
2021/12/21 12:50:39;;;;;;;10.20;9.20;;;5.00;99.90;;;;;;5055037;28;20258;-85
2021/12/21 12:53:07;;;;;;;10.67;9.30;;;5.00;99.90;;;;;;5054795;28;20201;-85
2021/12/21 12:55:43;;;;;;;12.10;9.13;;;5.10;99.90;;;;;;5053328;28;20273;-85
2021/12/21 12:58:21;;;;;;;10.97;9.77;;;5.10;99.90;;;;;;5054464;28;20193;-85
2021/12/21 13:00:53;;;;;;;13.20;11.20;;;5.10;99.90;;;;;;5053830;28;20191;-85
2021/12/21 13:03:21;;;;;;;20.27;12.50;;;5.00;99.90;;;;;;5053210;28;20236;-84
2021/12/21 13:05:54;;;;;;;11.63;10.43;;;5.00;99.90;;;;;;5053311;28;20555;-85
2021/12/21 13:08:23;;;;;;;13.27;11.93;;;4.90;99.90;;;;;;5052871;28;20159;-84
2021/12/21 13:10:56;;;;;;;13.40;12.00;;;4.80;99.90;;;;;;5053123;28;20205;-84
2021/12/21 13:13:35;;;;;;;13.07;11.67;;;4.70;99.90;;;;;;5053053;28;20202;-84
2021/12/21 13:16:06;;;;;;;15.43;11.57;;;4.50;99.90;;;;;;5053032;28;20642;-85
2021/12/21 13:18:37;;;;;;;14.27;12.20;;;4.50;99.90;;;;;;5052865;28;20182;-84
2021/12/21 13:21:03;;;;;;;18.60;12.97;;;4.40;99.90;;;;;;5069704;28;20567;-84
2021/12/21 13:23:31;;;;;;;15.47;12.13;;;4.20;99.90;;;;;;5052951;28;20202;-85
2021/12/21 13:26:07;;;;;;;14.20;12.70;;;4.20;99.90;;;;;;5052377;28;20190;-85
2021/12/21 13:28:52;;;;;;;16.80;13.43;;;4.30;99.90;;;;;;5052487;28;20291;-85
2021/12/21 13:31:21;;;;;;;14.30;12.80;;;4.30;99.90;;;;;;5052263;28;20257;-85
2021/12/21 13:33:55;;;;;;;13.10;11.73;;;4.20;99.90;;;;;;5052194;28;20576;-84
2021/12/21 13:36:41;;;;;;;14.17;12.73;;;4.10;99.90;;;;;;5052337;28;20170;-84
2021/12/21 13:39:19;;;;;;;14.93;11.67;;;3.90;99.90;;;;;;5072763;28;20213;-84
2021/12/21 13:41:57;;;;;;;16.40;11.23;;;3.60;99.90;;;;;;5055802;28;20695;-84
2021/12/21 13:44:24;;;;;;;12.80;11.60;;;3.50;99.90;;;;;;5055778;28;20200;-84
2021/12/21 13:46:50;;;;;;;12.93;11.57;;;3.50;99.90;;;;;;5056018;28;20611;-84